sensor_id;sensor_type;location;lat;lon;timestamp;temperature;humidity
9425;DHT22;17139;52.140;11.636;2022-08-19T00:01:17;20.80;57.80
9425;DHT22;17139;52.140;11.636;2022-08-19T00:03:44;20.60;57.80
9425;DHT22;17139;52.140;11.636;2022-08-19T00:06:11;20.40;57.90
9425;DHT22;17139;52.140;11.636;2022-08-19T00:08:39;20.30;58.10
9425;DHT22;17139;52.140;11.636;2022-08-19T00:11:06;20.20;58.30
9425;DHT22;17139;52.140;11.636;2022-08-19T00:13:33;20.10;58.20
9425;DHT22;17139;52.140;11.636;2022-08-19T00:16:01;20.10;58.30
9425;DHT22;17139;52.140;11.636;2022-08-19T00:18:31;20.00;58.40
9425;DHT22;17139;52.140;11.636;2022-08-19T00:20:59;20.80;61.60
9425;DHT22;17139;52.140;11.636;2022-08-19T00:23:26;20.50;59.00
9425;DHT22;17139;52.140;11.636;2022-08-19T00:25:53;20.20;58.90
9425;DHT22;17139;52.140;11.636;2022-08-19T00:28:20;20.80;61.80
9425;DHT22;17139;52.140;11.636;2022-08-19T00:30:47;20.40;59.70
9425;DHT22;17139;52.140;11.636;2022-08-19T00:33:14;20.00;59.60
9425;DHT22;17139;52.140;11.636;2022-08-19T00:35:43;19.80;60.00
9425;DHT22;17139;52.140;11.636;2022-08-19T00:38:10;19.60;60.20
9425;DHT22;17139;52.140;11.636;2022-08-19T00:40:37;19.40;60.10
9425;DHT22;17139;52.140;11.636;2022-08-19T00:43:08;19.30;60.00
9425;DHT22;17139;52.140;11.636;2022-08-19T00:45:35;19.20;60.50
9425;DHT22;17139;52.140;11.636;2022-08-19T00:48:03;19.10;60.80
9425;DHT22;17139;52.140;11.636;2022-08-19T00:50:31;20.20;63.90
9425;DHT22;17139;52.140;11.636;2022-08-19T00:52:59;19.80;61.50
9425;DHT22;17139;52.140;11.636;2022-08-19T00:55:30;19.40;61.50
9425;DHT22;17139;52.140;11.636;2022-08-19T00:58:02;19.20;61.60
9425;DHT22;17139;52.140;11.636;2022-08-19T01:00:31;19.10;61.20
9425;DHT22;17139;52.140;11.636;2022-08-19T01:03:02;19.10;61.30
9425;DHT22;17139;52.140;11.636;2022-08-19T01:05:29;19.00;61.20
9425;DHT22;17139;52.140;11.636;2022-08-19T01:08:01;19.10;61.30
9425;DHT22;17139;52.140;11.636;2022-08-19T01:10:31;19.10;61.20
9425;DHT22;17139;52.140;11.636;2022-08-19T01:12:59;19.10;61.00
9425;DHT22;17139;52.140;11.636;2022-08-19T01:15:30;19.00;61.40
9425;DHT22;17139;52.140;11.636;2022-08-19T01:18:00;19.00;61.40
9425;DHT22;17139;52.140;11.636;2022-08-19T01:20:27;19.00;60.80
9425;DHT22;17139;52.140;11.636;2022-08-19T01:22:57;19.10;61.00
9425;DHT22;17139;52.140;11.636;2022-08-19T01:25:29;19.10;61.40
9425;DHT22;17139;52.140;11.636;2022-08-19T01:27:58;19.10;61.00
9425;DHT22;17139;52.140;11.636;2022-08-19T01:30:28;19.00;61.00
9425;DHT22;17139;52.140;11.636;2022-08-19T01:32:56;19.00;60.80
9425;DHT22;17139;52.140;11.636;2022-08-19T01:35:25;19.00;61.10
9425;DHT22;17139;52.140;11.636;2022-08-19T01:37:54;19.00;61.40
9425;DHT22;17139;52.140;11.636;2022-08-19T01:40:26;19.00;61.30
9425;DHT22;17139;52.140;11.636;2022-08-19T01:42:53;19.00;61.20
9425;DHT22;17139;52.140;11.636;2022-08-19T01:45:23;19.00;60.90
9425;DHT22;17139;52.140;11.636;2022-08-19T01:47:51;19.20;62.40
9425;DHT22;17139;52.140;11.636;2022-08-19T01:50:18;19.20;61.10
9425;DHT22;17139;52.140;11.636;2022-08-19T01:52:45;19.20;61.90
9425;DHT22;17139;52.140;11.636;2022-08-19T01:55:15;19.10;61.30
9425;DHT22;17139;52.140;11.636;2022-08-19T01:57:47;19.10;61.50
9425;DHT22;17139;52.140;11.636;2022-08-19T02:00:18;19.10;61.30
9425;DHT22;17139;52.140;11.636;2022-08-19T02:02:45;19.10;61.30
9425;DHT22;17139;52.140;11.636;2022-08-19T02:05:13;19.10;61.10
9425;DHT22;17139;52.140;11.636;2022-08-19T02:07:46;19.10;60.90
9425;DHT22;17139;52.140;11.636;2022-08-19T02:10:17;19.10;60.90
9425;DHT22;17139;52.140;11.636;2022-08-19T02:12:47;19.10;60.90
9425;DHT22;17139;52.140;11.636;2022-08-19T02:15:15;19.10;60.80
9425;DHT22;17139;52.140;11.636;2022-08-19T02:17:42;19.50;63.30
9425;DHT22;17139;52.140;11.636;2022-08-19T02:20:10;19.40;61.20
9425;DHT22;17139;52.140;11.636;2022-08-19T02:22:39;19.30;61.10
9425;DHT22;17139;52.140;11.636;2022-08-19T02:25:09;19.70;63.70
9425;DHT22;17139;52.140;11.636;2022-08-19T02:27:36;19.60;62.30
9425;DHT22;17139;52.140;11.636;2022-08-19T02:30:06;19.40;61.30
9425;DHT22;17139;52.140;11.636;2022-08-19T02:32:34;19.30;61.40
9425;DHT22;17139;52.140;11.636;2022-08-19T02:35:01;19.30;61.50
9425;DHT22;17139;52.140;11.636;2022-08-19T02:37:28;19.20;61.40
9425;DHT22;17139;52.140;11.636;2022-08-19T02:40:13;19.20;61.30
9425;DHT22;17139;52.140;11.636;2022-08-19T02:42:40;19.20;61.30
9425;DHT22;17139;52.140;11.636;2022-08-19T02:45:10;19.20;61.40
9425;DHT22;17139;52.140;11.636;2022-08-19T02:47:37;19.70;63.80
9425;DHT22;17139;52.140;11.636;2022-08-19T02:50:04;19.60;61.80
9425;DHT22;17139;52.140;11.636;2022-08-19T02:52:32;19.40;61.60
9425;DHT22;17139;52.140;11.636;2022-08-19T02:54:59;19.70;63.60
9425;DHT22;17139;52.140;11.636;2022-08-19T02:57:27;19.60;61.80
9425;DHT22;17139;52.140;11.636;2022-08-19T02:59:54;19.40;61.70
9425;DHT22;17139;52.140;11.636;2022-08-19T03:02:23;19.30;61.60
9425;DHT22;17139;52.140;11.636;2022-08-19T03:04:50;19.20;61.70
9425;DHT22;17139;52.140;11.636;2022-08-19T03:07:18;19.20;61.90
9425;DHT22;17139;52.140;11.636;2022-08-19T03:09:45;19.10;61.70
9425;DHT22;17139;52.140;11.636;2022-08-19T03:12:12;19.10;61.70
9425;DHT22;17139;52.140;11.636;2022-08-19T03:14:40;19.10;61.80
9425;DHT22;17139;52.140;11.636;2022-08-19T03:17:07;19.10;62.20
9425;DHT22;17139;52.140;11.636;2022-08-19T03:19:35;19.10;62.70
9425;DHT22;17139;52.140;11.636;2022-08-19T03:22:03;19.10;61.80
9425;DHT22;17139;52.140;11.636;2022-08-19T03:24:30;19.10;62.00
9425;DHT22;17139;52.140;11.636;2022-08-19T03:26:58;19.00;61.70
9425;DHT22;17139;52.140;11.636;2022-08-19T03:29:26;19.00;61.70
9425;DHT22;17139;52.140;11.636;2022-08-19T03:31:53;19.00;61.70
9425;DHT22;17139;52.140;11.636;2022-08-19T03:34:24;19.00;61.60
9425;DHT22;17139;52.140;11.636;2022-08-19T03:36:53;19.00;61.30
9425;DHT22;17139;52.140;11.636;2022-08-19T03:39:21;19.00;62.10
9425;DHT22;17139;52.140;11.636;2022-08-19T03:41:50;18.90;62.20
9425;DHT22;17139;52.140;11.636;2022-08-19T03:44:20;18.90;61.80
9425;DHT22;17139;52.140;11.636;2022-08-19T03:46:48;18.90;62.00
9425;DHT22;17139;52.140;11.636;2022-08-19T03:49:16;19.60;64.10
9425;DHT22;17139;52.140;11.636;2022-08-19T03:51:43;19.50;62.10
9425;DHT22;17139;52.140;11.636;2022-08-19T03:54:14;19.30;62.00
9425;DHT22;17139;52.140;11.636;2022-08-19T03:56:43;19.90;63.80
9425;DHT22;17139;52.140;11.636;2022-08-19T03:59:12;19.60;62.30
9425;DHT22;17139;52.140;11.636;2022-08-19T04:01:40;19.40;62.40
9425;DHT22;17139;52.140;11.636;2022-08-19T04:04:07;19.20;62.70
9425;DHT22;17139;52.140;11.636;2022-08-19T04:06:35;19.10;62.70
9425;DHT22;17139;52.140;11.636;2022-08-19T04:09:04;19.00;62.60
9425;DHT22;17139;52.140;11.636;2022-08-19T04:11:35;19.00;62.60
9425;DHT22;17139;52.140;11.636;2022-08-19T04:14:05;19.00;62.60
9425;DHT22;17139;52.140;11.636;2022-08-19T04:16:33;19.00;62.60
9425;DHT22;17139;52.140;11.636;2022-08-19T04:19:02;19.20;63.00
9425;DHT22;17139;52.140;11.636;2022-08-19T04:21:29;19.10;62.00
9425;DHT22;17139;52.140;11.636;2022-08-19T04:23:57;19.10;62.20
9425;DHT22;17139;52.140;11.636;2022-08-19T04:26:27;19.10;63.00
9425;DHT22;17139;52.140;11.636;2022-08-19T04:28:59;19.10;61.80
9425;DHT22;17139;52.140;11.636;2022-08-19T04:31:31;19.00;62.10
9425;DHT22;17139;52.140;11.636;2022-08-19T04:34:03;18.90;62.40
9425;DHT22;17139;52.140;11.636;2022-08-19T04:36:32;18.90;62.50
9425;DHT22;17139;52.140;11.636;2022-08-19T04:39:02;18.80;62.60
9425;DHT22;17139;52.140;11.636;2022-08-19T04:41:29;18.80;62.60
9425;DHT22;17139;52.140;11.636;2022-08-19T04:44:15;18.80;63.20
9425;DHT22;17139;52.140;11.636;2022-08-19T04:46:44;18.80;62.50
9425;DHT22;17139;52.140;11.636;2022-08-19T04:49:12;18.80;62.40
9425;DHT22;17139;52.140;11.636;2022-08-19T04:51:41;18.80;62.50
9425;DHT22;17139;52.140;11.636;2022-08-19T04:54:08;18.80;62.60
9425;DHT22;17139;52.140;11.636;2022-08-19T04:56:35;18.80;62.40
9425;DHT22;17139;52.140;11.636;2022-08-19T04:59:02;18.80;62.20
9425;DHT22;17139;52.140;11.636;2022-08-19T05:01:32;18.80;62.10
9425;DHT22;17139;52.140;11.636;2022-08-19T05:04:02;18.80;62.30
9425;DHT22;17139;52.140;11.636;2022-08-19T05:06:31;18.90;62.30
9425;DHT22;17139;52.140;11.636;2022-08-19T05:08:59;18.90;62.30
9425;DHT22;17139;52.140;11.636;2022-08-19T05:11:29;18.90;62.10
9425;DHT22;17139;52.140;11.636;2022-08-19T05:13:56;19.60;63.70
9425;DHT22;17139;52.140;11.636;2022-08-19T05:16:25;19.50;61.90
9425;DHT22;17139;52.140;11.636;2022-08-19T05:18:54;19.80;62.90
9425;DHT22;17139;52.140;11.636;2022-08-19T05:21:41;19.60;61.80
9425;DHT22;17139;52.140;11.636;2022-08-19T05:24:26;19.40;62.00
9425;DHT22;17139;52.140;11.636;2022-08-19T05:26:54;19.90;63.10
9425;DHT22;17139;52.140;11.636;2022-08-19T05:29:25;19.70;61.80
9425;DHT22;17139;52.140;11.636;2022-08-19T05:31:54;19.50;62.10
9425;DHT22;17139;52.140;11.636;2022-08-19T05:34:24;19.40;62.20
9425;DHT22;17139;52.140;11.636;2022-08-19T05:36:54;19.30;62.20
9425;DHT22;17139;52.140;11.636;2022-08-19T05:39:25;19.30;62.30
9425;DHT22;17139;52.140;11.636;2022-08-19T05:41:59;19.20;62.30
9425;DHT22;17139;52.140;11.636;2022-08-19T05:44:29;19.20;62.30
9425;DHT22;17139;52.140;11.636;2022-08-19T05:46:57;19.20;62.10
9425;DHT22;17139;52.140;11.636;2022-08-19T05:49:27;20.00;62.70
9425;DHT22;17139;52.140;11.636;2022-08-19T05:51:54;19.70;61.50
9425;DHT22;17139;52.140;11.636;2022-08-19T05:54:22;19.50;61.70
9425;DHT22;17139;52.140;11.636;2022-08-19T05:56:50;20.10;62.80
9425;DHT22;17139;52.140;11.636;2022-08-19T05:59:19;19.80;61.60
9425;DHT22;17139;52.140;11.636;2022-08-19T06:01:49;19.60;61.80
9425;DHT22;17139;52.140;11.636;2022-08-19T06:04:17;19.40;62.10
9425;DHT22;17139;52.140;11.636;2022-08-19T06:06:46;19.30;62.30
9425;DHT22;17139;52.140;11.636;2022-08-19T06:09:14;19.30;62.20
9425;DHT22;17139;52.140;11.636;2022-08-19T06:11:43;19.20;62.30
9425;DHT22;17139;52.140;11.636;2022-08-19T06:14:13;19.10;62.30
9425;DHT22;17139;52.140;11.636;2022-08-19T06:16:41;19.10;62.40
9425;DHT22;17139;52.140;11.636;2022-08-19T06:19:10;19.50;63.30
9425;DHT22;17139;52.140;11.636;2022-08-19T06:21:39;19.30;62.10
9425;DHT22;17139;52.140;11.636;2022-08-19T06:24:09;19.10;62.50
9425;DHT22;17139;52.140;11.636;2022-08-19T06:26:41;19.00;62.50
9425;DHT22;17139;52.140;11.636;2022-08-19T06:29:10;19.80;63.40
9425;DHT22;17139;52.140;11.636;2022-08-19T06:31:41;19.50;62.10
9425;DHT22;17139;52.140;11.636;2022-08-19T06:34:09;19.20;62.30
9425;DHT22;17139;52.140;11.636;2022-08-19T06:36:38;19.80;63.70
9425;DHT22;17139;52.140;11.636;2022-08-19T06:39:11;19.60;62.50
9425;DHT22;17139;52.140;11.636;2022-08-19T06:41:42;19.30;62.60
9425;DHT22;17139;52.140;11.636;2022-08-19T06:44:10;19.10;62.70
9425;DHT22;17139;52.140;11.636;2022-08-19T06:46:37;19.10;63.30
9425;DHT22;17139;52.140;11.636;2022-08-19T06:49:05;19.00;63.00
9425;DHT22;17139;52.140;11.636;2022-08-19T06:51:37;18.90;63.10
9425;DHT22;17139;52.140;11.636;2022-08-19T06:54:04;19.40;64.40
9425;DHT22;17139;52.140;11.636;2022-08-19T06:56:33;19.20;63.10
9425;DHT22;17139;52.140;11.636;2022-08-19T06:59:00;19.00;63.20
9425;DHT22;17139;52.140;11.636;2022-08-19T07:01:28;18.90;63.30
9425;DHT22;17139;52.140;11.636;2022-08-19T07:03:55;18.90;63.30
9425;DHT22;17139;52.140;11.636;2022-08-19T07:06:22;18.80;63.20
9425;DHT22;17139;52.140;11.636;2022-08-19T07:08:49;18.80;63.10
9425;DHT22;17139;52.140;11.636;2022-08-19T07:11:18;18.80;63.20
9425;DHT22;17139;52.140;11.636;2022-08-19T07:13:47;19.10;64.40
9425;DHT22;17139;52.140;11.636;2022-08-19T07:16:16;19.00;63.30
9425;DHT22;17139;52.140;11.636;2022-08-19T07:18:46;18.80;63.20
9425;DHT22;17139;52.140;11.636;2022-08-19T07:21:17;18.70;63.80
9425;DHT22;17139;52.140;11.636;2022-08-19T07:23:45;18.70;64.00
9425;DHT22;17139;52.140;11.636;2022-08-19T07:26:14;18.70;64.00
9425;DHT22;17139;52.140;11.636;2022-08-19T07:28:41;18.70;64.00
9425;DHT22;17139;52.140;11.636;2022-08-19T07:31:12;18.60;63.90
9425;DHT22;17139;52.140;11.636;2022-08-19T07:33:40;18.70;64.20
9425;DHT22;17139;52.140;11.636;2022-08-19T07:36:09;18.80;64.10
9425;DHT22;17139;52.140;11.636;2022-08-19T07:38:39;18.80;64.00
9425;DHT22;17139;52.140;11.636;2022-08-19T07:41:06;18.90;64.10
9425;DHT22;17139;52.140;11.636;2022-08-19T07:43:33;19.70;65.60
9425;DHT22;17139;52.140;11.636;2022-08-19T07:46:00;19.60;63.90
9425;DHT22;17139;52.140;11.636;2022-08-19T07:48:29;19.50;64.60
9425;DHT22;17139;52.140;11.636;2022-08-19T07:51:01;19.90;64.80
9425;DHT22;17139;52.140;11.636;2022-08-19T07:53:30;19.80;63.40
9425;DHT22;17139;52.140;11.636;2022-08-19T07:55:58;19.70;63.40
9425;DHT22;17139;52.140;11.636;2022-08-19T07:58:31;19.70;63.60
9425;DHT22;17139;52.140;11.636;2022-08-19T08:00:59;19.60;63.40
9425;DHT22;17139;52.140;11.636;2022-08-19T08:03:27;19.60;63.60
9425;DHT22;17139;52.140;11.636;2022-08-19T08:06:09;19.70;63.50
9425;DHT22;17139;52.140;11.636;2022-08-19T08:08:54;19.80;63.20
9425;DHT22;17139;52.140;11.636;2022-08-19T08:11:48;19.70;62.90
9425;DHT22;17139;52.140;11.636;2022-08-19T08:14:17;19.80;63.00
9425;DHT22;17139;52.140;11.636;2022-08-19T08:16:45;19.90;62.80
9425;DHT22;17139;52.140;11.636;2022-08-19T08:19:13;19.90;62.60
9425;DHT22;17139;52.140;11.636;2022-08-19T08:21:43;20.60;63.10
9425;DHT22;17139;52.140;11.636;2022-08-19T08:24:11;20.40;62.00
9425;DHT22;17139;52.140;11.636;2022-08-19T08:26:38;20.20;62.10
9425;DHT22;17139;52.140;11.636;2022-08-19T08:29:06;20.00;62.30
9425;DHT22;17139;52.140;11.636;2022-08-19T08:31:37;19.90;62.60
9425;DHT22;17139;52.140;11.636;2022-08-19T08:34:03;19.90;62.70
9425;DHT22;17139;52.140;11.636;2022-08-19T08:36:30;19.90;62.60
9425;DHT22;17139;52.140;11.636;2022-08-19T08:39:00;19.90;62.60
9425;DHT22;17139;52.140;11.636;2022-08-19T08:41:31;20.00;62.80
9425;DHT22;17139;52.140;11.636;2022-08-19T08:44:02;20.80;63.30
9425;DHT22;17139;52.140;11.636;2022-08-19T08:46:35;20.60;61.90
9425;DHT22;17139;52.140;11.636;2022-08-19T08:49:10;20.40;62.10
9425;DHT22;17139;52.140;11.636;2022-08-19T08:51:46;20.80;62.70
9425;DHT22;17139;52.140;11.636;2022-08-19T08:54:19;20.50;62.10
9425;DHT22;17139;52.140;11.636;2022-08-19T08:56:49;20.40;62.30
9425;DHT22;17139;52.140;11.636;2022-08-19T08:59:21;20.30;62.40
9425;DHT22;17139;52.140;11.636;2022-08-19T09:01:51;20.20;62.40
9425;DHT22;17139;52.140;11.636;2022-08-19T09:04:18;20.60;62.90
9425;DHT22;17139;52.140;11.636;2022-08-19T09:06:50;20.50;62.10
9425;DHT22;17139;52.140;11.636;2022-08-19T09:09:26;20.60;62.30
9425;DHT22;17139;52.140;11.636;2022-08-19T09:12:05;20.50;62.20
9425;DHT22;17139;52.140;11.636;2022-08-19T09:14:37;20.40;62.40
9425;DHT22;17139;52.140;11.636;2022-08-19T09:17:07;20.40;62.50
9425;DHT22;17139;52.140;11.636;2022-08-19T09:19:35;20.30;62.10
9425;DHT22;17139;52.140;11.636;2022-08-19T09:22:03;20.20;62.20
9425;DHT22;17139;52.140;11.636;2022-08-19T09:24:32;20.20;62.30
9425;DHT22;17139;52.140;11.636;2022-08-19T09:27:01;20.20;62.30
9425;DHT22;17139;52.140;11.636;2022-08-19T09:29:28;20.20;62.00
9425;DHT22;17139;52.140;11.636;2022-08-19T09:31:56;20.20;62.20
9425;DHT22;17139;52.140;11.636;2022-08-19T09:34:23;20.20;62.10
9425;DHT22;17139;52.140;11.636;2022-08-19T09:36:50;20.20;62.00
9425;DHT22;17139;52.140;11.636;2022-08-19T09:39:19;20.30;62.10
9425;DHT22;17139;52.140;11.636;2022-08-19T09:41:47;20.30;62.10
9425;DHT22;17139;52.140;11.636;2022-08-19T09:44:15;20.40;62.10
9425;DHT22;17139;52.140;11.636;2022-08-19T09:46:42;21.30;61.90
9425;DHT22;17139;52.140;11.636;2022-08-19T09:49:12;21.20;61.40
9425;DHT22;17139;52.140;11.636;2022-08-19T09:51:39;21.20;61.30
9425;DHT22;17139;52.140;11.636;2022-08-19T09:54:06;21.20;61.30
9425;DHT22;17139;52.140;11.636;2022-08-19T09:56:34;21.40;61.10
9425;DHT22;17139;52.140;11.636;2022-08-19T09:59:03;21.60;60.80
9425;DHT22;17139;52.140;11.636;2022-08-19T10:01:31;21.70;60.50
9425;DHT22;17139;52.140;11.636;2022-08-19T10:03:59;21.90;60.20
9425;DHT22;17139;52.140;11.636;2022-08-19T10:06:29;22.10;60.00
9425;DHT22;17139;52.140;11.636;2022-08-19T10:08:58;22.10;59.60
9425;DHT22;17139;52.140;11.636;2022-08-19T10:11:25;22.20;59.80
9425;DHT22;17139;52.140;11.636;2022-08-19T10:13:53;22.20;59.70
9425;DHT22;17139;52.140;11.636;2022-08-19T10:16:23;23.10;57.90
9425;DHT22;17139;52.140;11.636;2022-08-19T10:18:51;22.90;58.30
9425;DHT22;17139;52.140;11.636;2022-08-19T10:21:21;22.90;58.80
9425;DHT22;17139;52.140;11.636;2022-08-19T10:23:50;22.90;59.40
9425;DHT22;17139;52.140;11.636;2022-08-19T10:26:20;22.80;58.80
9425;DHT22;17139;52.140;11.636;2022-08-19T10:28:48;22.80;58.70
9425;DHT22;17139;52.140;11.636;2022-08-19T10:31:17;22.60;58.70
9425;DHT22;17139;52.140;11.636;2022-08-19T10:33:47;23.50;56.90
9425;DHT22;17139;52.140;11.636;2022-08-19T10:36:17;23.10;57.60
9425;DHT22;17139;52.140;11.636;2022-08-19T10:38:45;22.90;58.10
9425;DHT22;17139;52.140;11.636;2022-08-19T10:41:15;22.80;58.40
9425;DHT22;17139;52.140;11.636;2022-08-19T10:43:43;23.30;57.50
9425;DHT22;17139;52.140;11.636;2022-08-19T10:46:12;24.00;55.80
9425;DHT22;17139;52.140;11.636;2022-08-19T10:48:40;23.90;56.70
9425;DHT22;17139;52.140;11.636;2022-08-19T10:51:09;23.80;56.80
9425;DHT22;17139;52.140;11.636;2022-08-19T10:53:54;23.70;57.00
9425;DHT22;17139;52.140;11.636;2022-08-19T10:56:22;23.50;57.30
9425;DHT22;17139;52.140;11.636;2022-08-19T10:59:06;24.30;55.20
9425;DHT22;17139;52.140;11.636;2022-08-19T11:01:34;24.00;56.40
9425;DHT22;17139;52.140;11.636;2022-08-19T11:04:03;23.70;56.80
9425;DHT22;17139;52.140;11.636;2022-08-19T11:06:32;24.30;55.30
9425;DHT22;17139;52.140;11.636;2022-08-19T11:08:59;23.90;56.10
9425;DHT22;17139;52.140;11.636;2022-08-19T11:11:27;23.70;56.80
9425;DHT22;17139;52.140;11.636;2022-08-19T11:13:54;23.50;57.20
9425;DHT22;17139;52.140;11.636;2022-08-19T11:16:23;23.50;57.50
9425;DHT22;17139;52.140;11.636;2022-08-19T11:18:52;23.50;57.60
9425;DHT22;17139;52.140;11.636;2022-08-19T11:21:21;23.60;57.60
9425;DHT22;17139;52.140;11.636;2022-08-19T11:23:51;24.20;55.50
9425;DHT22;17139;52.140;11.636;2022-08-19T11:26:20;24.00;56.30
9425;DHT22;17139;52.140;11.636;2022-08-19T11:28:47;23.80;56.70
9425;DHT22;17139;52.140;11.636;2022-08-19T11:31:18;24.10;55.90
9425;DHT22;17139;52.140;11.636;2022-08-19T11:33:46;23.90;56.40
9425;DHT22;17139;52.140;11.636;2022-08-19T11:36:16;23.80;56.90
9425;DHT22;17139;52.140;11.636;2022-08-19T11:38:43;23.70;57.20
9425;DHT22;17139;52.140;11.636;2022-08-19T11:41:16;23.80;57.40
9425;DHT22;17139;52.140;11.636;2022-08-19T11:43:46;23.80;57.30
9425;DHT22;17139;52.140;11.636;2022-08-19T11:46:15;23.90;57.30
9425;DHT22;17139;52.140;11.636;2022-08-19T11:48:43;24.00;57.10
9425;DHT22;17139;52.140;11.636;2022-08-19T11:51:12;24.00;57.00
9425;DHT22;17139;52.140;11.636;2022-08-19T11:53:40;24.00;57.00
9425;DHT22;17139;52.140;11.636;2022-08-19T11:56:08;23.90;57.00
9425;DHT22;17139;52.140;11.636;2022-08-19T11:58:37;23.90;57.30
9425;DHT22;17139;52.140;11.636;2022-08-19T12:01:05;23.90;57.40
9425;DHT22;17139;52.140;11.636;2022-08-19T12:03:33;24.00;57.00
9425;DHT22;17139;52.140;11.636;2022-08-19T12:06:04;24.80;54.50
9425;DHT22;17139;52.140;11.636;2022-08-19T12:08:31;24.60;55.40
9425;DHT22;17139;52.140;11.636;2022-08-19T12:10:58;24.30;55.80
9425;DHT22;17139;52.140;11.636;2022-08-19T12:13:26;24.80;54.10
9425;DHT22;17139;52.140;11.636;2022-08-19T12:15:55;24.60;55.30
9425;DHT22;17139;52.140;11.636;2022-08-19T12:18:22;24.40;55.90
9425;DHT22;17139;52.140;11.636;2022-08-19T12:20:51;24.70;54.60
9425;DHT22;17139;52.140;11.636;2022-08-19T12:23:20;24.50;55.40
9425;DHT22;17139;52.140;11.636;2022-08-19T12:25:48;24.50;55.90
9425;DHT22;17139;52.140;11.636;2022-08-19T12:28:18;24.40;56.20
9425;DHT22;17139;52.140;11.636;2022-08-19T12:30:45;24.40;56.30
9425;DHT22;17139;52.140;11.636;2022-08-19T12:33:14;24.40;56.30
9425;DHT22;17139;52.140;11.636;2022-08-19T12:35:41;24.20;56.40
9425;DHT22;17139;52.140;11.636;2022-08-19T12:38:09;24.20;56.60
9425;DHT22;17139;52.140;11.636;2022-08-19T12:40:36;24.20;56.70
9425;DHT22;17139;52.140;11.636;2022-08-19T12:43:04;24.10;56.70
9425;DHT22;17139;52.140;11.636;2022-08-19T12:45:31;24.00;56.80
9425;DHT22;17139;52.140;11.636;2022-08-19T12:47:58;25.00;54.50
9425;DHT22;17139;52.140;11.636;2022-08-19T12:50:27;24.80;55.20
9425;DHT22;17139;52.140;11.636;2022-08-19T12:52:53;24.70;55.50
9425;DHT22;17139;52.140;11.636;2022-08-19T12:55:20;24.70;55.70
9425;DHT22;17139;52.140;11.636;2022-08-19T12:57:47;24.70;55.80
9425;DHT22;17139;52.140;11.636;2022-08-19T13:00:18;24.60;55.70
9425;DHT22;17139;52.140;11.636;2022-08-19T13:02:47;24.50;55.90
9425;DHT22;17139;52.140;11.636;2022-08-19T13:05:17;24.50;56.10
9425;DHT22;17139;52.140;11.636;2022-08-19T13:07:47;24.50;56.10
9425;DHT22;17139;52.140;11.636;2022-08-19T13:10:17;24.60;56.20
9425;DHT22;17139;52.140;11.636;2022-08-19T13:12:47;24.60;56.20
9425;DHT22;17139;52.140;11.636;2022-08-19T13:15:16;25.50;53.50
9425;DHT22;17139;52.140;11.636;2022-08-19T13:17:47;25.10;54.30
9425;DHT22;17139;52.140;11.636;2022-08-19T13:20:16;24.80;55.20
9425;DHT22;17139;52.140;11.636;2022-08-19T13:22:44;24.80;55.50
9425;DHT22;17139;52.140;11.636;2022-08-19T13:25:13;24.70;55.50
9425;DHT22;17139;52.140;11.636;2022-08-19T13:27:42;24.70;55.50
9425;DHT22;17139;52.140;11.636;2022-08-19T13:30:12;24.60;55.70
9425;DHT22;17139;52.140;11.636;2022-08-19T13:32:57;24.60;55.40
9425;DHT22;17139;52.140;11.636;2022-08-19T13:35:41;24.50;55.50
9425;DHT22;17139;52.140;11.636;2022-08-19T13:38:09;24.40;55.60
9425;DHT22;17139;52.140;11.636;2022-08-19T13:40:38;24.30;56.00
9425;DHT22;17139;52.140;11.636;2022-08-19T13:43:06;24.40;55.90
9425;DHT22;17139;52.140;11.636;2022-08-19T13:45:34;24.50;56.00
9425;DHT22;17139;52.140;11.636;2022-08-19T13:48:04;24.50;55.90
9425;DHT22;17139;52.140;11.636;2022-08-19T13:50:32;24.60;56.00
9425;DHT22;17139;52.140;11.636;2022-08-19T13:53:00;24.60;56.00
9425;DHT22;17139;52.140;11.636;2022-08-19T13:55:28;24.80;56.00
9425;DHT22;17139;52.140;11.636;2022-08-19T13:57:59;24.90;55.80
9425;DHT22;17139;52.140;11.636;2022-08-19T14:00:29;25.10;54.70
9425;DHT22;17139;52.140;11.636;2022-08-19T14:02:57;25.10;54.90
9425;DHT22;17139;52.140;11.636;2022-08-19T14:05:26;25.10;55.20
9425;DHT22;17139;52.140;11.636;2022-08-19T14:07:54;25.10;54.70
9425;DHT22;17139;52.140;11.636;2022-08-19T14:10:21;24.90;55.00
9425;DHT22;17139;52.140;11.636;2022-08-19T14:12:49;24.90;55.10
9425;DHT22;17139;52.140;11.636;2022-08-19T14:15:18;24.80;55.30
9425;DHT22;17139;52.140;11.636;2022-08-19T14:17:45;24.80;55.20
9425;DHT22;17139;52.140;11.636;2022-08-19T14:20:14;24.80;55.30
9425;DHT22;17139;52.140;11.636;2022-08-19T14:22:42;24.80;55.10
9425;DHT22;17139;52.140;11.636;2022-08-19T14:25:12;24.80;55.20
9425;DHT22;17139;52.140;11.636;2022-08-19T14:27:40;24.80;55.30
9425;DHT22;17139;52.140;11.636;2022-08-19T14:30:10;25.50;52.70
9425;DHT22;17139;52.140;11.636;2022-08-19T14:32:39;25.20;53.70
9425;DHT22;17139;52.140;11.636;2022-08-19T14:35:07;24.90;54.60
9425;DHT22;17139;52.140;11.636;2022-08-19T14:37:34;25.20;53.00
9425;DHT22;17139;52.140;11.636;2022-08-19T14:40:03;24.90;54.20
9425;DHT22;17139;52.140;11.636;2022-08-19T14:42:31;24.60;54.60
9425;DHT22;17139;52.140;11.636;2022-08-19T14:44:58;24.50;54.80
9425;DHT22;17139;52.140;11.636;2022-08-19T14:47:26;24.30;54.90
9425;DHT22;17139;52.140;11.636;2022-08-19T14:49:54;24.50;54.30
9425;DHT22;17139;52.140;11.636;2022-08-19T14:52:21;24.20;54.70
9425;DHT22;17139;52.140;11.636;2022-08-19T14:54:48;24.10;55.10
9425;DHT22;17139;52.140;11.636;2022-08-19T14:57:15;24.70;53.30
9425;DHT22;17139;52.140;11.636;2022-08-19T14:59:43;24.40;54.10
9425;DHT22;17139;52.140;11.636;2022-08-19T15:02:10;24.20;54.70
9425;DHT22;17139;52.140;11.636;2022-08-19T15:04:37;24.60;53.80
9425;DHT22;17139;52.140;11.636;2022-08-19T15:07:06;24.40;54.30
9425;DHT22;17139;52.140;11.636;2022-08-19T15:09:33;24.30;54.90
9425;DHT22;17139;52.140;11.636;2022-08-19T15:12:01;24.30;55.20
9425;DHT22;17139;52.140;11.636;2022-08-19T15:14:30;24.30;55.20
9425;DHT22;17139;52.140;11.636;2022-08-19T15:17:01;24.30;55.20
9425;DHT22;17139;52.140;11.636;2022-08-19T15:19:29;24.30;55.20
9425;DHT22;17139;52.140;11.636;2022-08-19T15:21:56;24.10;55.20
9425;DHT22;17139;52.140;11.636;2022-08-19T15:24:25;24.90;53.00
9425;DHT22;17139;52.140;11.636;2022-08-19T15:26:53;24.60;54.10
9425;DHT22;17139;52.140;11.636;2022-08-19T15:29:21;24.30;54.70
9425;DHT22;17139;52.140;11.636;2022-08-19T15:31:50;24.90;53.00
9425;DHT22;17139;52.140;11.636;2022-08-19T15:34:17;24.50;53.90
9425;DHT22;17139;52.140;11.636;2022-08-19T15:36:44;24.30;54.50
9425;DHT22;17139;52.140;11.636;2022-08-19T15:39:11;24.10;55.10
9425;DHT22;17139;52.140;11.636;2022-08-19T15:41:41;24.10;55.30